< < Back
Terminal Aerodrome Forecast


Current Version              Previous Versions:   1  2  3  4  5  6  7  8  9  

Terminal Aerodrome Forecast

822
FTUS42 KJAX 281304 AAA
TAFGNV
TAF AMD
KGNV 281304Z 2813/2912 34005KT P6SM SKC
     FM281500 02007KT P6SM SCT045
     FM290000 00000KT P6SM SKC=

Latest METAR

488
SAUS70 KWBC 282200 RRA
MTRGNV
METAR KGNV 282153Z 01007KT 10SM CLR 14/M01 A3022 RMK AO2 SLP235
T01391011


USA.gov is the U.S. government's official web portal to all federal, state and local government web resources and services.